createdAt,value
2017-06-28T00:00:31.832Z,0
2017-06-28T00:01:12.350Z,0
2017-06-28T00:01:52.863Z,0
2017-06-28T00:02:33.421Z,0
2017-06-28T00:03:13.829Z,0
2017-06-28T00:03:54.327Z,0
2017-06-28T00:04:34.866Z,0
2017-06-28T00:05:15.388Z,0
2017-06-28T00:05:55.918Z,0
2017-06-28T00:06:36.454Z,0
2017-06-28T00:07:16.973Z,0
2017-06-28T00:07:57.439Z,0
2017-06-28T00:08:37.974Z,0
2017-06-28T00:09:18.510Z,0
2017-06-28T00:09:58.978Z,0
2017-06-28T00:10:39.500Z,0
2017-06-28T00:11:20.130Z,0
2017-06-28T00:13:54.477Z,0
2017-06-28T00:14:35.087Z,0
2017-06-28T00:15:15.612Z,0
2017-06-28T00:17:49.306Z,0
2017-06-28T00:18:29.860Z,0
2017-06-28T00:19:10.407Z,0
2017-06-28T00:19:50.902Z,0
2017-06-28T00:20:31.410Z,0
2017-06-28T00:21:11.962Z,0
2017-06-28T00:21:52.567Z,0
2017-06-28T00:22:33.013Z,0
2017-06-28T00:23:13.459Z,0
2017-06-28T00:23:54.012Z,0
2017-06-28T00:24:34.506Z,0
2017-06-28T00:25:14.958Z,0
2017-06-28T00:25:55.481Z,0
2017-06-28T00:26:35.961Z,0
2017-06-28T00:27:16.484Z,0
2017-06-28T00:27:57.044Z,0
2017-06-28T00:28:37.558Z,0
2017-06-28T00:29:18.078Z,0
2017-06-28T00:29:58.581Z,0
2017-06-28T00:30:39.096Z,0
2017-06-28T00:31:19.603Z,0
2017-06-28T00:32:00.082Z,0
2017-06-28T00:32:40.608Z,0
2017-06-28T00:33:21.096Z,0
2017-06-28T00:34:01.625Z,0
2017-06-28T00:34:42.132Z,0
2017-06-28T00:35:22.607Z,0
2017-06-28T00:36:03.070Z,0
2017-06-28T00:36:43.599Z,0
2017-06-28T00:37:24.075Z,0
2017-06-28T00:38:04.651Z,0
2017-06-28T00:38:45.150Z,0
2017-06-28T00:39:25.705Z,0
2017-06-28T00:40:06.881Z,0
2017-06-28T00:40:47.425Z,0
2017-06-28T00:41:27.935Z,0
2017-06-28T00:42:08.434Z,0
2017-06-28T00:42:48.973Z,0
2017-06-28T00:43:29.397Z,0
2017-06-28T00:44:09.959Z,0
2017-06-28T00:44:50.539Z,0
2017-06-28T00:45:30.974Z,0
2017-06-28T00:46:11.461Z,0
2017-06-28T00:46:51.992Z,0
2017-06-28T00:47:32.498Z,0
2017-06-28T00:48:13.026Z,0
2017-06-28T00:48:53.464Z,0
2017-06-28T00:49:33.979Z,0
2017-06-28T00:50:14.667Z,0
2017-06-28T00:50:55.010Z,0
2017-06-28T00:51:35.518Z,0
2017-06-28T00:52:16.091Z,0
2017-06-28T00:52:56.610Z,0
2017-06-28T00:53:37.092Z,0
2017-06-28T00:54:17.679Z,0
2017-06-28T00:54:58.157Z,0
2017-06-28T00:55:38.670Z,0
2017-06-28T00:56:19.133Z,0
2017-06-28T00:56:59.768Z,0
2017-06-28T00:57:40.249Z,0
2017-06-28T00:58:20.739Z,0
2017-06-28T00:59:02.916Z,0
2017-06-28T00:59:46.417Z,0
2017-06-28T01:00:26.898Z,0
2017-06-28T01:01:07.622Z,0
2017-06-28T01:01:48.076Z,0
2017-06-28T01:02:28.599Z,0
2017-06-28T01:03:09.174Z,0
2017-06-28T01:03:49.657Z,0
2017-06-28T01:04:30.204Z,0
2017-06-28T01:05:11.430Z,0
2017-06-28T01:05:52.829Z,0
2017-06-28T01:06:34.237Z,0
2017-06-28T01:07:14.820Z,0
2017-06-28T01:07:55.298Z,0
2017-06-28T01:08:35.822Z,0
2017-06-28T01:09:16.390Z,0
2017-06-28T01:09:56.894Z,0
2017-06-28T01:10:37.484Z,0
2017-06-28T01:11:17.942Z,0
2017-06-28T01:11:58.510Z,0
2017-06-28T01:12:39.026Z,0
2017-06-28T01:13:19.559Z,0
2017-06-28T01:14:00.123Z,0
2017-06-28T01:14:40.618Z,0
2017-06-28T01:15:21.066Z,0
2017-06-28T01:16:01.586Z,0
2017-06-28T01:16:42.077Z,0
2017-06-28T01:17:22.605Z,0
2017-06-28T01:18:03.127Z,0
2017-06-28T01:18:43.678Z,0
2017-06-28T01:19:24.299Z,0
2017-06-28T01:20:04.722Z,0
2017-06-28T01:20:45.242Z,0
2017-06-28T01:21:32.401Z,0
2017-06-28T01:22:12.834Z,0
2017-06-28T01:22:53.338Z,0
2017-06-28T01:25:06.637Z,0
2017-06-28T01:25:47.342Z,0
2017-06-28T01:26:27.817Z,0
2017-06-28T01:27:08.327Z,0
2017-06-28T01:27:48.816Z,0
2017-06-28T01:28:29.389Z,0
2017-06-28T01:29:09.869Z,0
2017-06-28T01:29:50.429Z,0
2017-06-28T01:30:30.884Z,0
2017-06-28T01:31:11.436Z,0
2017-06-28T01:31:51.896Z,0
2017-06-28T01:32:32.396Z,0
2017-06-28T01:33:12.926Z,0
2017-06-28T01:33:53.423Z,0
2017-06-28T01:34:34.001Z,0
2017-06-28T01:35:14.463Z,0
2017-06-28T01:35:55.197Z,0
2017-06-28T01:36:35.738Z,0
2017-06-28T01:37:16.218Z,0
2017-06-28T01:37:56.771Z,0
2017-06-28T01:38:37.342Z,0
2017-06-28T01:39:17.827Z,0
2017-06-28T01:39:58.306Z,0
2017-06-28T01:40:38.830Z,0
2017-06-28T01:41:19.395Z,0
2017-06-28T01:41:59.857Z,0
2017-06-28T01:42:40.403Z,0
2017-06-28T01:43:20.918Z,0
2017-06-28T01:44:01.392Z,0
2017-06-28T01:44:41.946Z,0
2017-06-28T01:45:22.524Z,0
2017-06-28T01:46:03.028Z,0
2017-06-28T01:46:43.483Z,0
2017-06-28T01:47:24.079Z,0
2017-06-28T01:48:04.553Z,0
2017-06-28T01:48:45.152Z,0
2017-06-28T01:49:25.609Z,0
2017-06-28T01:50:06.155Z,0
2017-06-28T01:50:46.761Z,0
2017-06-28T01:51:27.278Z,0
2017-06-28T01:52:07.738Z,0
2017-06-28T01:52:48.314Z,0
2017-06-28T01:53:28.815Z,0
2017-06-28T01:54:09.313Z,0
2017-06-28T01:54:49.824Z,0
2017-06-28T01:55:30.327Z,0
2017-06-28T01:56:10.820Z,0
2017-06-28T01:56:51.325Z,0
2017-06-28T01:57:31.832Z,0
2017-06-28T01:58:12.368Z,0
2017-06-28T01:58:52.914Z,0
2017-06-28T01:59:33.381Z,0
2017-06-28T02:00:13.891Z,0
2017-06-28T02:00:54.497Z,0
2017-06-28T02:01:50.933Z,0
2017-06-28T02:02:31.430Z,0
2017-06-28T02:03:11.983Z,0
2017-06-28T02:03:52.496Z,0
2017-06-28T02:04:32.975Z,0
2017-06-28T02:06:31.164Z,0
2017-06-28T02:07:14.620Z,0
2017-06-28T02:07:55.676Z,0
2017-06-28T02:08:36.181Z,0
2017-06-28T02:09:16.700Z,0
2017-06-28T02:09:57.240Z,0
2017-06-28T02:10:37.743Z,0
2017-06-28T02:11:18.285Z,0
2017-06-28T02:11:58.763Z,0
2017-06-28T02:12:39.263Z,0
2017-06-28T02:13:19.828Z,0
2017-06-28T02:14:00.311Z,0
2017-06-28T02:14:40.854Z,0
2017-06-28T02:15:21.371Z,0
2017-06-28T02:16:01.881Z,0
2017-06-28T02:16:43.122Z,0
2017-06-28T02:17:24.515Z,0
2017-06-28T02:18:04.165Z,0
2017-06-28T02:18:44.714Z,0
2017-06-28T02:19:25.189Z,0
2017-06-28T02:20:05.704Z,0
2017-06-28T02:20:46.285Z,0
2017-06-28T02:21:26.816Z,0
2017-06-28T02:22:07.300Z,0
2017-06-28T02:22:47.934Z,0
2017-06-28T02:23:28.448Z,0
2017-06-28T02:24:09.014Z,0
2017-06-28T02:24:49.545Z,0
2017-06-28T02:25:33.718Z,0
2017-06-28T02:26:14.245Z,0
2017-06-28T02:26:54.755Z,0
2017-06-28T02:27:49.930Z,0
2017-06-28T02:28:30.476Z,0
2017-06-28T02:29:11.021Z,0
2017-06-28T02:29:51.692Z,0
2017-06-28T02:32:20.890Z,0
2017-06-28T02:33:05.936Z,0
2017-06-28T02:33:54.171Z,0
2017-06-28T02:34:36.528Z,0
2017-06-28T02:35:17.078Z,0
2017-06-28T02:35:57.554Z,0
2017-06-28T02:36:38.075Z,0
2017-06-28T02:37:18.567Z,0
2017-06-28T02:37:59.081Z,0
2017-06-28T02:38:41.595Z,0
2017-06-28T02:39:23.086Z,0
2017-06-28T02:40:05.376Z,0
2017-06-28T02:40:45.909Z,0
2017-06-28T02:41:26.402Z,0
2017-06-28T02:42:06.890Z,0
2017-06-28T02:42:47.377Z,0
2017-06-28T02:43:27.935Z,0
2017-06-28T02:44:08.471Z,0
2017-06-28T02:44:48.950Z,0
2017-06-28T02:45:29.479Z,0
2017-06-28T02:46:09.921Z,0
2017-06-28T02:46:50.431Z,0
2017-06-28T02:47:30.963Z,0
2017-06-28T02:48:11.442Z,0
2017-06-28T02:48:51.953Z,0
2017-06-28T02:49:32.457Z,0
2017-06-28T02:50:12.961Z,0
2017-06-28T02:50:53.469Z,0
2017-06-28T02:51:33.989Z,0
2017-06-28T02:52:14.499Z,0
2017-06-28T02:52:55.008Z,0
2017-06-28T02:53:35.500Z,0
2017-06-28T02:54:16.035Z,0
2017-06-28T02:54:56.556Z,0
2017-06-28T02:55:37.027Z,0
2017-06-28T02:56:17.608Z,4
2017-06-28T02:56:58.210Z,4
2017-06-28T02:58:56.402Z,4
2017-06-28T02:59:36.920Z,0
2017-06-28T03:00:17.494Z,0
2017-06-28T03:00:58.046Z,4
2017-06-28T03:01:38.996Z,4
2017-06-28T03:02:19.517Z,0
2017-06-28T03:03:00.016Z,0
2017-06-28T03:03:40.478Z,0
2017-06-28T03:04:20.967Z,0
2017-06-28T03:05:01.481Z,0
2017-06-28T03:05:41.986Z,0
2017-06-28T03:06:22.433Z,4
2017-06-28T03:07:02.974Z,4
2017-06-28T03:07:43.450Z,4
2017-06-28T03:08:24.000Z,4
2017-06-28T03:09:04.573Z,4
2017-06-28T03:09:45.049Z,4
2017-06-28T03:10:25.624Z,4
2017-06-28T03:11:06.178Z,8
2017-06-28T03:11:46.681Z,8
2017-06-28T03:12:27.159Z,8
2017-06-28T03:13:07.668Z,8
2017-06-28T03:13:48.238Z,4
2017-06-28T03:14:28.745Z,8
2017-06-28T03:15:09.238Z,8
2017-06-28T03:15:49.746Z,8
2017-06-28T03:16:30.234Z,8
2017-06-28T03:17:10.701Z,12
2017-06-28T03:17:51.318Z,12
2017-06-28T03:18:31.731Z,12
2017-06-28T03:19:12.226Z,12
2017-06-28T03:19:52.720Z,8
2017-06-28T03:20:33.204Z,12
2017-06-28T03:21:13.822Z,12
2017-06-28T03:21:54.379Z,16
2017-06-28T03:22:34.845Z,12
2017-06-28T03:23:15.379Z,12
2017-06-28T03:23:55.883Z,16
2017-06-28T03:24:36.443Z,16
2017-06-28T03:25:16.922Z,16
2017-06-28T03:25:57.453Z,16
2017-06-28T03:26:37.925Z,16
2017-06-28T03:27:18.407Z,20
2017-06-28T03:27:58.939Z,20
2017-06-28T03:28:39.468Z,20
2017-06-28T03:29:20.011Z,24
2017-06-28T03:30:00.478Z,24
2017-06-28T03:30:40.962Z,24
2017-06-28T03:31:21.484Z,28
2017-06-28T03:32:01.950Z,24
2017-06-28T03:32:42.459Z,28
2017-06-28T03:33:22.962Z,28
2017-06-28T03:34:03.547Z,28
2017-06-28T03:34:44.102Z,32
2017-06-28T03:35:24.520Z,36
2017-06-28T03:36:05.058Z,32
2017-06-28T03:36:45.572Z,36
2017-06-28T03:37:26.050Z,40
2017-06-28T03:38:06.592Z,40
2017-06-28T03:38:47.193Z,40
2017-06-28T03:39:27.684Z,40
2017-06-28T03:40:08.301Z,44
2017-06-28T03:40:48.801Z,44
2017-06-28T03:41:29.266Z,44
2017-06-28T03:42:09.784Z,44
2017-06-28T03:42:50.338Z,48
2017-06-28T03:43:30.895Z,48
2017-06-28T03:44:11.391Z,48
2017-06-28T03:44:51.930Z,48
2017-06-28T03:45:32.403Z,48
2017-06-28T03:46:12.981Z,52
2017-06-28T03:46:53.465Z,52
2017-06-28T03:47:33.984Z,52
2017-06-28T03:48:14.500Z,52
2017-06-28T03:48:55.012Z,56
2017-06-28T03:49:35.510Z,56
2017-06-28T03:50:16.020Z,56
2017-06-28T03:50:56.495Z,56
2017-06-28T03:51:37.031Z,56
2017-06-28T03:52:17.562Z,56
2017-06-28T03:52:58.046Z,56
2017-06-28T03:53:38.548Z,60
2017-06-28T03:54:19.058Z,60
2017-06-28T03:54:59.553Z,60
2017-06-28T03:55:40.159Z,60
2017-06-28T03:56:20.637Z,60
2017-06-28T03:57:01.186Z,64
2017-06-28T03:57:41.632Z,64
2017-06-28T03:58:22.217Z,68
2017-06-28T03:59:02.680Z,72
2017-06-28T03:59:43.218Z,72
2017-06-28T04:00:23.684Z,72
2017-06-28T04:01:04.207Z,76
2017-06-28T04:01:44.724Z,80
2017-06-28T04:02:25.278Z,80
2017-06-28T04:03:05.765Z,84
2017-06-28T04:03:46.225Z,84
2017-06-28T04:04:26.731Z,88
2017-06-28T04:05:07.254Z,88
2017-06-28T04:05:47.793Z,92
2017-06-28T04:06:28.291Z,92
2017-06-28T04:07:08.802Z,96
2017-06-28T04:07:49.389Z,100
2017-06-28T04:08:29.899Z,100
2017-06-28T04:09:10.401Z,108
2017-06-28T04:09:50.875Z,108
2017-06-28T04:10:32.239Z,112
2017-06-28T04:11:12.740Z,112
2017-06-28T04:11:53.210Z,116
2017-06-28T04:12:33.714Z,116
2017-06-28T04:13:14.262Z,116
2017-06-28T04:13:54.727Z,116
2017-06-28T04:14:35.239Z,116
2017-06-28T04:15:15.718Z,116
2017-06-28T04:15:56.227Z,116
2017-06-28T04:16:36.721Z,120
2017-06-28T04:17:17.205Z,116
2017-06-28T04:17:57.776Z,120
2017-06-28T04:18:38.260Z,120
2017-06-28T04:19:18.720Z,124
2017-06-28T04:19:59.213Z,128
2017-06-28T04:20:39.700Z,128
2017-06-28T04:21:20.217Z,132
2017-06-28T04:22:00.710Z,136
2017-06-28T04:22:41.206Z,132
2017-06-28T04:23:21.864Z,136
2017-06-28T04:24:02.318Z,140
2017-06-28T04:24:42.845Z,144
2017-06-28T04:25:23.361Z,144
2017-06-28T04:26:03.846Z,148
2017-06-28T04:26:44.316Z,156
2017-06-28T04:27:24.828Z,156
2017-06-28T04:28:05.353Z,164
2017-06-28T04:28:45.855Z,168
2017-06-28T04:29:26.359Z,172
2017-06-28T04:30:06.889Z,176
2017-06-28T04:30:47.412Z,184
2017-06-28T04:31:27.942Z,192
2017-06-28T04:32:08.479Z,200
2017-06-28T04:32:49.024Z,204
2017-06-28T04:33:29.558Z,212
2017-06-28T04:34:10.085Z,220
2017-06-28T04:34:50.961Z,224
2017-06-28T04:35:31.401Z,232
2017-06-28T04:36:11.978Z,236
2017-06-28T04:36:52.452Z,240
2017-06-28T04:37:32.974Z,252
2017-06-28T04:38:13.493Z,256
2017-06-28T04:38:54.011Z,264
2017-06-28T04:39:34.542Z,268
2017-06-28T04:40:15.121Z,280
2017-06-28T04:40:55.924Z,288
2017-06-28T04:41:36.454Z,292
2017-06-28T04:42:16.987Z,296
2017-06-28T04:42:57.516Z,308
2017-06-28T04:43:38.041Z,312
2017-06-28T04:44:18.570Z,320
2017-06-28T04:44:59.181Z,324
2017-06-28T04:45:40.513Z,328
2017-06-28T04:46:20.873Z,332
2017-06-28T04:47:01.372Z,336
2017-06-28T04:47:42.956Z,344
2017-06-28T04:48:23.486Z,348
2017-06-28T04:49:04.006Z,356
2017-06-28T04:49:44.540Z,356
2017-06-28T04:50:25.059Z,364
2017-06-28T04:51:05.631Z,368
2017-06-28T04:51:46.148Z,376
2017-06-28T04:52:26.672Z,380
2017-06-28T04:53:07.198Z,384
2017-06-28T04:53:47.720Z,384
2017-06-28T04:54:28.258Z,384
2017-06-28T04:55:08.832Z,388
2017-06-28T04:55:49.399Z,392
2017-06-28T04:56:29.886Z,396
2017-06-28T04:57:10.402Z,400
2017-06-28T04:57:50.967Z,408
2017-06-28T04:58:31.490Z,408
2017-06-28T04:59:12.021Z,412
2017-06-28T04:59:52.538Z,420
2017-06-28T05:00:33.057Z,428
2017-06-28T05:01:13.587Z,436
2017-06-28T05:01:54.122Z,448
2017-06-28T05:02:34.641Z,456
2017-06-28T05:03:15.169Z,472
2017-06-28T05:03:55.704Z,480
2017-06-28T05:04:36.222Z,492
2017-06-28T05:05:16.749Z,504
2017-06-28T05:05:57.259Z,516
2017-06-28T05:06:37.796Z,528
2017-06-28T05:07:18.323Z,536
2017-06-28T05:07:58.841Z,548
2017-06-28T05:08:39.385Z,552
2017-06-28T05:09:19.869Z,560
2017-06-28T05:10:00.405Z,564
2017-06-28T05:10:40.938Z,556
2017-06-28T05:11:21.494Z,552
2017-06-28T05:12:02.758Z,548
2017-06-28T05:12:43.845Z,540
2017-06-28T05:13:24.366Z,532
2017-06-28T05:14:04.893Z,524
2017-06-28T05:14:45.413Z,520
2017-06-28T05:15:25.943Z,512
2017-06-28T05:16:06.428Z,508
2017-06-28T05:16:46.959Z,500
2017-06-28T05:17:27.442Z,500
2017-06-28T05:18:07.971Z,496
2017-06-28T05:18:48.499Z,492
2017-06-28T05:19:28.960Z,488
2017-06-28T05:20:09.523Z,484
2017-06-28T05:20:50.026Z,484
2017-06-28T05:21:30.518Z,484
2017-06-28T05:22:10.989Z,480
2017-06-28T05:22:51.578Z,484
2017-06-28T05:23:32.093Z,480
2017-06-28T05:24:12.607Z,476
2017-06-28T05:24:53.128Z,472
2017-06-28T05:25:33.648Z,468
2017-06-28T05:26:14.168Z,468
2017-06-28T05:26:54.696Z,464
2017-06-28T05:27:35.214Z,464
2017-06-28T05:28:15.727Z,468
2017-06-28T05:28:56.228Z,468
2017-06-28T05:29:36.745Z,468
2017-06-28T05:30:17.254Z,472
2017-06-28T05:30:57.779Z,468
2017-06-28T05:31:38.349Z,468
2017-06-28T05:32:18.891Z,472
2017-06-28T05:32:59.524Z,472
2017-06-28T05:33:39.907Z,472
2017-06-28T05:34:20.412Z,472
2017-06-28T05:35:01.857Z,476
2017-06-28T05:35:41.460Z,480
2017-06-28T05:36:21.957Z,476
2017-06-28T05:37:02.454Z,480
2017-06-28T05:37:42.920Z,480
2017-06-28T05:38:23.423Z,476
2017-06-28T05:39:03.936Z,472
2017-06-28T05:39:44.486Z,472
2017-06-28T05:40:25.006Z,480
2017-06-28T05:41:05.534Z,488
2017-06-28T05:41:46.023Z,504
2017-06-28T05:42:26.567Z,516
2017-06-28T05:43:07.101Z,520
2017-06-28T05:43:47.620Z,524
2017-06-28T05:44:28.152Z,520
2017-06-28T05:45:08.683Z,524
2017-06-28T05:45:49.217Z,528
2017-06-28T05:46:29.766Z,532
2017-06-28T05:47:10.308Z,544
2017-06-28T05:47:50.807Z,544
2017-06-28T05:48:31.325Z,552
2017-06-28T05:49:11.855Z,552
2017-06-28T05:49:52.374Z,548
2017-06-28T05:50:32.901Z,552
2017-06-28T05:51:13.424Z,572
2017-06-28T05:51:53.954Z,600
2017-06-28T05:52:34.480Z,632
2017-06-28T05:53:15.072Z,664
2017-06-28T05:53:55.583Z,704
2017-06-28T05:54:36.096Z,740
2017-06-28T05:55:16.610Z,784
2017-06-28T05:55:57.137Z,816
2017-06-28T05:56:37.672Z,836
2017-06-28T05:57:18.188Z,860
2017-06-28T05:57:58.715Z,880
2017-06-28T05:58:39.250Z,912
2017-06-28T05:59:19.778Z,952
2017-06-28T06:00:00.304Z,996
2017-06-28T06:00:40.832Z,1036
2017-06-28T06:01:21.385Z,1072
2017-06-28T06:02:01.910Z,1112
2017-06-28T06:02:42.407Z,1156
2017-06-28T06:03:22.925Z,1188
2017-06-28T06:04:03.463Z,1220
2017-06-28T06:04:43.984Z,1260
2017-06-28T06:05:24.509Z,1300
2017-06-28T06:06:05.025Z,1356
2017-06-28T06:06:45.580Z,1412
2017-06-28T06:07:26.090Z,1468
2017-06-28T06:08:06.616Z,1512
2017-06-28T06:08:47.164Z,1588
2017-06-28T06:09:27.688Z,1672
2017-06-28T06:10:08.216Z,1760
2017-06-28T06:10:48.772Z,1880
2017-06-28T06:11:29.255Z,2016
2017-06-28T06:12:09.802Z,2196
2017-06-28T06:12:50.328Z,2392
2017-06-28T06:13:30.859Z,2548
2017-06-28T06:14:11.372Z,2668
2017-06-28T06:14:51.909Z,2664
2017-06-28T06:15:32.433Z,2680
2017-06-28T06:16:12.957Z,2752
2017-06-28T06:16:53.485Z,2864
2017-06-28T06:17:34.033Z,3028
2017-06-28T06:18:14.512Z,3164
2017-06-28T06:18:55.053Z,2888
2017-06-28T06:19:35.579Z,2692
2017-06-28T06:20:16.089Z,2612
2017-06-28T06:20:56.614Z,2568
2017-06-28T06:21:37.152Z,2552
2017-06-28T06:22:17.742Z,2520
2017-06-28T06:22:58.273Z,2452
2017-06-28T06:23:38.808Z,2388
2017-06-28T06:24:19.338Z,2336
2017-06-28T06:24:59.867Z,2304
2017-06-28T06:25:40.403Z,2292
2017-06-28T06:26:20.919Z,2284
2017-06-28T06:27:01.451Z,2288
2017-06-28T06:27:41.964Z,2304
2017-06-28T06:28:23.383Z,2324
2017-06-28T06:29:03.952Z,2336
2017-06-28T06:29:44.490Z,2328
2017-06-28T06:30:25.058Z,2288
2017-06-28T06:31:05.560Z,2216
2017-06-28T06:31:46.074Z,2128
2017-06-28T06:32:26.598Z,2048
2017-06-28T06:33:07.075Z,1992
2017-06-28T06:33:47.598Z,1932
2017-06-28T06:34:28.121Z,1888
2017-06-28T06:35:08.639Z,1844
2017-06-28T06:35:49.189Z,1812
2017-06-28T06:36:29.732Z,1804
2017-06-28T06:37:10.269Z,1828
2017-06-28T06:37:51.383Z,1856
2017-06-28T06:39:49.068Z,1876
2017-06-28T06:40:29.602Z,1848
2017-06-28T06:41:10.129Z,1828
2017-06-28T06:41:50.645Z,1808
2017-06-28T06:42:31.185Z,1812
2017-06-28T06:43:11.715Z,1844
2017-06-28T06:43:52.237Z,1892
2017-06-28T06:44:32.758Z,1964
2017-06-28T06:45:13.272Z,2052
2017-06-28T06:45:53.788Z,2136
2017-06-28T06:46:34.310Z,2232
2017-06-28T06:47:14.836Z,2328
2017-06-28T06:47:55.360Z,2420
2017-06-28T06:48:35.877Z,2540
2017-06-28T06:49:16.403Z,2708
2017-06-28T06:49:56.927Z,2848
2017-06-28T06:50:37.441Z,2964
2017-06-28T06:51:17.963Z,3036
2017-06-28T06:51:58.497Z,3096
2017-06-28T06:52:39.036Z,3188
2017-06-28T06:53:19.570Z,3284
2017-06-28T06:54:00.207Z,3340
2017-06-28T06:54:40.750Z,3360
2017-06-28T06:55:21.257Z,3356
2017-06-28T06:56:01.785Z,3304
2017-06-28T06:56:42.309Z,3264
2017-06-28T06:57:22.836Z,3208
2017-06-28T06:58:03.356Z,3140
2017-06-28T06:58:43.863Z,3048
2017-06-28T06:59:24.736Z,2948
2017-06-28T07:00:05.289Z,2844
2017-06-28T07:00:45.835Z,2708
2017-06-28T07:01:26.347Z,2476
2017-06-28T07:02:06.875Z,2276
2017-06-28T07:02:47.409Z,2308
2017-06-28T07:03:27.950Z,2480
2017-06-28T07:04:08.465Z,2680
2017-06-28T07:06:41.674Z,3052
2017-06-28T07:07:22.176Z,3112
2017-06-28T07:08:02.695Z,3180
2017-06-28T07:08:43.444Z,3256
2017-06-28T07:09:23.981Z,3268
2017-06-28T07:11:37.288Z,3216
2017-06-28T07:12:17.818Z,3260
2017-06-28T07:12:58.339Z,3340
2017-06-28T07:13:38.927Z,3452
2017-06-28T07:14:19.449Z,3692
2017-06-28T07:14:59.999Z,3924
2017-06-28T07:15:40.523Z,4100
2017-06-28T07:16:21.243Z,4256
2017-06-28T07:17:01.759Z,4460
2017-06-28T07:17:42.326Z,4928
2017-06-28T07:18:23.134Z,5596
2017-06-28T07:19:03.917Z,6456
2017-06-28T07:19:44.400Z,6968
2017-06-28T07:20:24.920Z,7716
2017-06-28T07:21:05.436Z,10076
2017-06-28T07:21:45.933Z,9292
2017-06-28T07:22:26.453Z,9668
2017-06-28T07:23:06.958Z,9804
2017-06-28T07:23:47.476Z,9732
2017-06-28T07:24:28.001Z,9396
2017-06-28T07:25:08.524Z,9536
2017-06-28T07:25:49.030Z,9632
2017-06-28T07:26:29.560Z,9768
2017-06-28T07:27:10.089Z,9884
2017-06-28T07:27:50.580Z,9868
2017-06-28T07:28:31.130Z,9900
2017-06-28T07:29:11.678Z,10008
2017-06-28T07:29:52.195Z,9908
2017-06-28T07:30:32.742Z,9596
2017-06-28T07:31:13.586Z,8888
2017-06-28T07:31:53.893Z,7908
2017-06-28T07:32:34.413Z,7028
2017-06-28T07:33:14.901Z,6264
2017-06-28T07:33:55.410Z,5460
2017-06-28T07:34:35.868Z,4664
2017-06-28T07:35:16.366Z,4288
2017-06-28T07:35:56.878Z,4132
2017-06-28T07:36:37.447Z,3828
2017-06-28T07:37:17.899Z,3508
2017-06-28T07:37:58.466Z,3396
2017-06-28T07:38:38.955Z,3416
2017-06-28T07:39:19.453Z,3316
2017-06-28T07:39:59.979Z,3096
2017-06-28T07:40:40.514Z,2916
2017-06-28T07:41:21.000Z,2848
2017-06-28T07:42:01.532Z,2872
2017-06-28T07:42:42.030Z,2932
2017-06-28T07:43:22.528Z,2796
2017-06-28T07:44:03.087Z,2808
2017-06-28T07:44:43.595Z,2760
2017-06-28T07:45:24.134Z,2768
2017-06-28T07:46:04.659Z,2796
2017-06-28T07:46:45.179Z,2968
2017-06-28T07:47:25.699Z,3240
2017-06-28T07:48:06.222Z,3412
2017-06-28T07:48:46.741Z,3260
2017-06-28T07:49:27.280Z,3196
2017-06-28T07:50:07.805Z,3468
2017-06-28T07:50:48.325Z,3504
2017-06-28T07:51:28.847Z,3640
2017-06-28T07:52:09.370Z,3664
2017-06-28T07:52:49.942Z,3524
2017-06-28T07:53:30.435Z,3872
2017-06-28T07:54:10.961Z,4292
2017-06-28T07:54:51.617Z,5040
2017-06-28T07:55:32.188Z,7068
2017-06-28T07:56:12.711Z,7184
2017-06-28T07:56:53.504Z,7512
2017-06-28T07:57:34.035Z,8008
2017-06-28T07:58:14.550Z,7708
2017-06-28T07:58:55.744Z,7284
2017-06-28T07:59:36.268Z,6380
2017-06-28T08:00:16.795Z,5452
2017-06-28T08:00:57.340Z,4748
2017-06-28T08:01:38.013Z,4092
2017-06-28T08:02:18.470Z,3772
2017-06-28T08:02:59.085Z,3344
2017-06-28T08:03:39.582Z,2992
2017-06-28T08:04:20.083Z,2456
2017-06-28T08:05:00.553Z,2220
2017-06-28T08:05:41.105Z,2248
2017-06-28T08:06:21.594Z,2300
2017-06-28T08:07:02.122Z,2604
2017-06-28T08:07:42.643Z,2828
2017-06-28T08:08:23.182Z,2876
2017-06-28T08:09:03.693Z,2704
2017-06-28T08:09:44.206Z,2792
2017-06-28T08:10:24.728Z,2920
2017-06-28T08:11:05.264Z,3080
2017-06-28T08:11:45.782Z,3436
2017-06-28T08:12:26.293Z,3904
2017-06-28T08:13:06.811Z,4280
2017-06-28T08:13:47.306Z,4464
2017-06-28T08:14:27.842Z,4276
2017-06-28T08:15:08.383Z,4920
2017-06-28T08:15:48.912Z,5428
2017-06-28T08:16:29.464Z,5420
2017-06-28T08:17:10.074Z,5348
2017-06-28T08:17:50.604Z,5140
2017-06-28T08:18:31.133Z,4640
2017-06-28T08:19:11.633Z,4132
2017-06-28T08:19:52.146Z,3808
2017-06-28T08:20:32.745Z,3688
2017-06-28T08:21:13.245Z,3616
2017-06-28T08:21:53.767Z,3556
2017-06-28T08:22:34.304Z,3516
2017-06-28T08:23:14.828Z,3576
2017-06-28T08:23:55.435Z,3708
2017-06-28T08:24:36.072Z,3912
2017-06-28T08:25:16.655Z,4144
2017-06-28T08:25:57.237Z,4336
2017-06-28T08:26:37.763Z,4476
2017-06-28T08:27:18.281Z,4600
2017-06-28T08:27:58.809Z,4748
2017-06-28T08:28:39.337Z,4860
2017-06-28T08:29:19.848Z,4896
2017-06-28T08:30:00.355Z,4900
2017-06-28T08:30:40.885Z,4856
2017-06-28T08:31:21.378Z,4668
2017-06-28T08:32:01.901Z,4428
2017-06-28T08:32:42.397Z,4320
2017-06-28T08:33:22.898Z,4212
2017-06-28T08:34:03.407Z,4128
2017-06-28T08:34:43.972Z,4156
2017-06-28T08:35:24.477Z,4252
2017-06-28T08:36:05.036Z,4360
2017-06-28T08:36:45.511Z,4468
2017-06-28T08:37:25.997Z,4612
2017-06-28T08:38:06.699Z,4816
2017-06-28T08:38:47.070Z,4912
2017-06-28T08:39:27.610Z,4924
2017-06-28T08:40:08.171Z,5040
2017-06-28T08:40:48.635Z,5156
2017-06-28T08:41:29.159Z,5204
2017-06-28T08:42:09.687Z,5272
2017-06-28T08:42:50.139Z,5452
2017-06-28T08:43:30.931Z,5720
2017-06-28T08:44:11.543Z,6052
2017-06-28T08:44:52.133Z,6368
2017-06-28T08:45:32.572Z,6636
2017-06-28T08:46:13.140Z,6832
2017-06-28T08:46:53.756Z,6984
2017-06-28T08:47:34.200Z,7052
2017-06-28T08:48:14.675Z,7040
2017-06-28T08:48:55.175Z,7052
2017-06-28T08:49:35.691Z,7116
2017-06-28T08:50:16.209Z,7204
2017-06-28T08:50:56.730Z,7344
2017-06-28T08:51:37.505Z,7568
2017-06-28T08:52:18.046Z,7744
2017-06-28T08:52:58.660Z,7732
2017-06-28T08:53:39.100Z,7756
2017-06-28T08:54:19.640Z,7852
2017-06-28T08:55:00.168Z,7988
2017-06-28T08:55:40.665Z,8068
2017-06-28T08:56:21.116Z,8088
2017-06-28T08:57:02.054Z,8008
2017-06-28T08:57:42.593Z,7868
2017-06-28T08:58:23.158Z,7768
2017-06-28T08:59:03.869Z,7844
2017-06-28T08:59:44.301Z,8092
2017-06-28T09:00:24.854Z,8476
2017-06-28T09:01:05.579Z,8844
2017-06-28T09:01:46.099Z,9100
2017-06-28T09:02:26.660Z,9192
2017-06-28T09:03:07.211Z,9236
2017-06-28T09:03:47.764Z,9152
2017-06-28T09:04:28.279Z,9012
2017-06-28T09:05:08.978Z,8844
2017-06-28T09:05:49.361Z,8724
2017-06-28T09:06:29.817Z,8620
2017-06-28T09:07:10.368Z,8524
2017-06-28T09:07:50.876Z,8368
2017-06-28T09:10:09.247Z,8212
2017-06-28T09:10:49.777Z,8232
2017-06-28T09:11:30.322Z,8236
2017-06-28T09:12:10.819Z,8280
2017-06-28T09:12:51.391Z,8452
2017-06-28T09:13:31.909Z,8696
2017-06-28T09:14:12.761Z,8960
2017-06-28T09:14:53.303Z,9156
2017-06-28T09:15:33.818Z,9352
2017-06-28T09:16:14.371Z,9404
2017-06-28T09:18:27.924Z,9272
2017-06-28T09:19:08.446Z,9392
2017-06-28T09:19:48.997Z,9336
2017-06-28T09:20:29.617Z,9252
2017-06-28T09:21:10.143Z,9368
2017-06-28T09:21:50.668Z,9452
2017-06-28T09:24:09.113Z,9584
2017-06-28T09:24:49.695Z,9508
2017-06-28T09:25:30.298Z,9356
2017-06-28T09:26:11.258Z,9196
2017-06-28T09:26:51.782Z,9132
2017-06-28T09:27:32.320Z,8964
2017-06-28T09:28:12.870Z,8988
2017-06-28T09:28:53.434Z,8936
2017-06-28T09:29:33.906Z,8708
2017-06-28T09:30:14.558Z,8532
2017-06-28T09:30:54.927Z,8416
2017-06-28T09:31:35.529Z,8336
2017-06-28T09:32:15.921Z,8308
2017-06-28T09:32:56.468Z,8324
2017-06-28T09:33:36.949Z,8344
2017-06-28T09:34:17.455Z,8284
2017-06-28T09:34:58.022Z,8292
2017-06-28T09:35:38.620Z,8428
2017-06-28T09:36:19.122Z,8180
2017-06-28T09:36:59.640Z,8432
2017-06-28T09:37:40.150Z,8460
2017-06-28T09:38:20.571Z,8624
2017-06-28T09:39:01.085Z,8240
2017-06-28T09:39:41.620Z,9480
2017-06-28T09:40:22.136Z,9900
2017-06-28T09:41:02.650Z,9736
2017-06-28T09:41:43.165Z,9768
2017-06-28T09:42:23.692Z,9760
2017-06-28T09:43:04.206Z,9632
2017-06-28T09:43:44.719Z,10144
2017-06-28T09:44:25.242Z,10128
2017-06-28T09:45:05.760Z,9352
2017-06-28T09:45:46.298Z,9420